Preview of NWS' New Version of Forecast
This preview is not operational and should not be used for support decisions.

Terminal Aerodrome Forecast (TAF)

Issued by National Weather Service (NWS)

                            
000
FTUS42 KCAE 231730
TAFOGB
TAF
KOGB 231730Z 2318/2418 VRB04KT P6SM VCTS BKN040CB
      TEMPO 2318/2321 VRB20KT 2SM TSRA BKN030CB
     FM240200 18004KT P6SM OVC150
     FM240900 00000KT 4SM BR SCT008 OVC035
     FM241400 VRB03KT 6SM BR VCSH BKN025=